Aviation Digital Data Service (ADDS)

Output produced by METARs form (0151 UTC 04 May 2016)
found at http://aviationweather.gov/adds/metars/
 
METAR text: KBFM 040053Z 31005KT 10SM OVC048 22/18 A2991 RMK AO2 SLP126 T02170183
Conditions at: KBFM (MOBILE/BROOKLEY , AL, US) observed 0053 UTC 04 May 2016
Temperature: 21.7°C (71°F)
Dewpoint: 18.3°C (65°F) [RH = 81%]
Pressure (altimeter): 29.91 inches Hg (1013.0 mb)
[Sea-level pressure: 1012.6 mb]
Winds: from the NW (310 degrees) at 6 MPH (5 knots; 2.6 m/s)
Visibility: 10 or more miles (16+ km)
Ceiling: 4800 feet AGL
Clouds: overcast cloud deck at 4800 feet AGL
Weather: no significant weather observed at this time